Time;durP1;ratioP1;P1;durP2;ratioP2;P2;SDS_P1;SDS_P2;PMS_P1;PMS_P2;Temp;Humidity;BMP_temperature;BMP_pressure;BME280_temperature;BME280_humidity;BME280_pressure;Samples;Min_cycle;Max_cycle;Signal;HPM_P1;HPM_P2
2022/10/07 00:02:13;;;;;;;5.82;4.72;;;11.70;99.90;;;;;;4983205;28;20196;-64
2022/10/07 00:04:44;;;;;;;13.05;4.72;;;11.60;99.90;;;;;;5002181;28;20184;-64
2022/10/07 00:07:14;;;;;;;8.80;4.10;;;11.70;99.90;;;;;;5015314;28;20191;-64
2022/10/07 00:09:39;;;;;;;7.82;3.88;;;11.80;99.90;;;;;;4981885;28;20195;-65
2022/10/07 00:12:05;;;;;;;13.48;4.47;;;11.70;99.90;;;;;;4996931;28;20274;-65
2022/10/07 00:14:31;;;;;;;8.37;4.13;;;11.60;99.90;;;;;;5012419;28;20223;-64
2022/10/07 00:17:00;;;;;;;15.00;4.65;;;11.50;99.90;;;;;;4988613;28;20191;-64
2022/10/07 00:19:25;;;;;;;8.15;4.32;;;11.70;99.90;;;;;;5008911;28;20188;-64
2022/10/07 00:21:51;;;;;;;7.03;5.23;;;11.90;99.90;;;;;;4980591;28;20584;-64
2022/10/07 00:24:17;;;;;;;6.93;4.70;;;12.00;99.90;;;;;;4979664;28;20512;-64
2022/10/07 00:26:43;;;;;;;9.93;4.47;;;12.10;99.90;;;;;;4996458;28;20628;-64
2022/10/07 00:29:08;;;;;;;7.80;4.40;;;12.10;99.90;;;;;;5007830;28;20219;-64
2022/10/07 00:31:35;;;;;;;7.83;4.37;;;12.10;99.90;;;;;;5011159;28;20199;-63
2022/10/07 00:34:02;;;;;;;7.77;5.53;;;11.90;99.90;;;;;;4996248;28;20559;-63
2022/10/07 00:36:36;;;;;;;8.30;4.70;;;11.70;99.90;;;;;;5014515;28;20183;-64
2022/10/07 00:39:05;;;;;;;10.50;3.97;;;11.50;99.90;;;;;;4994877;28;20207;-63
2022/10/07 00:41:34;;;;;;;6.67;4.67;;;11.40;99.90;;;;;;5000663;28;20183;-64
2022/10/07 00:44:43;;;;;;;7.13;4.33;;;11.30;99.90;;;;;;5010352;28;20187;-64
2022/10/07 00:47:11;;;;;;;9.87;4.83;;;11.20;99.90;;;;;;4993235;28;20206;-63
2022/10/07 00:49:52;;;;;;;8.60;5.10;;;11.20;99.90;;;;;;5001809;28;20641;-63
2022/10/07 00:52:20;;;;;;;11.73;4.83;;;11.30;99.90;;;;;;5001355;28;20267;-63
2022/10/07 00:54:53;;;;;;;10.83;5.43;;;11.70;99.90;;;;;;5003379;28;20184;-64
2022/10/07 00:57:25;;;;;;;13.50;5.53;;;11.70;99.90;;;;;;4981212;28;20282;-64
2022/10/07 00:59:53;;;;;;;7.50;5.77;;;11.60;99.90;;;;;;4995886;28;20671;-66
2022/10/07 01:02:19;;;;;;;10.73;5.27;;;11.70;99.90;;;;;;5013910;28;20287;-64
2022/10/07 01:04:49;;;;;;;15.57;5.83;;;11.90;99.90;;;;;;5010626;28;20550;-65
2022/10/07 01:07:17;;;;;;;8.10;5.23;;;11.90;99.90;;;;;;4979125;28;20667;-64
2022/10/07 01:09:43;;;;;;;9.70;5.13;;;11.60;99.90;;;;;;5007909;28;20278;-65
2022/10/07 01:12:16;;;;;;;6.97;5.00;;;11.40;99.90;;;;;;4995604;28;20334;-64
2022/10/07 01:14:57;;;;;;;7.60;4.77;;;11.30;99.90;;;;;;5003259;28;20207;-64
2022/10/07 01:17:37;;;;;;;15.67;4.87;;;11.40;99.90;;;;;;4993459;28;20180;-64
2022/10/07 01:20:30;;;;;;;7.53;4.47;;;11.40;99.90;;;;;;5004468;28;20180;-64
2022/10/07 01:23:31;;;;;;;6.03;4.50;;;11.30;99.90;;;;;;5004298;28;20543;-65
2022/10/07 01:26:22;;;;;;;9.40;4.53;;;11.10;99.90;;;;;;5002741;28;20219;-64
2022/10/07 01:29:19;;;;;;;7.55;4.00;;;11.00;99.90;;;;;;5000500;28;20219;-64
2022/10/07 01:31:50;;;;;;;12.80;4.90;;;10.90;99.90;;;;;;4993427;28;20207;-65
2022/10/07 01:34:18;;;;;;;6.97;4.10;;;10.80;99.90;;;;;;4996347;28;20180;-65
2022/10/07 01:36:49;;;;;;;7.93;4.77;;;10.80;99.90;;;;;;5004991;28;20574;-63
2022/10/07 01:39:20;;;;;;;13.00;4.00;;;10.80;99.90;;;;;;4982998;28;20192;-64
2022/10/07 01:41:47;;;;;;;12.33;4.40;;;11.10;99.90;;;;;;4996383;28;20185;-63
2022/10/07 01:44:13;;;;;;;9.10;4.20;;;11.40;99.90;;;;;;4978891;28;20282;-62
2022/10/07 01:46:38;;;;;;;11.47;4.03;;;11.50;99.90;;;;;;4976533;28;20191;-63
2022/10/07 01:49:05;;;;;;;14.27;5.33;;;11.50;99.90;;;;;;4986939;28;20220;-65
2022/10/07 01:51:36;;;;;;;9.77;4.03;;;11.50;99.90;;;;;;5008102;28;20267;-63
2022/10/07 01:54:10;;;;;;;12.43;5.37;;;11.60;99.90;;;;;;4994804;28;20188;-62
2022/10/07 01:56:55;;;;;;;8.00;4.70;;;11.80;99.90;;;;;;4998030;28;20175;-62
2022/10/07 01:59:31;;;;;;;9.17;5.23;;;11.90;99.90;;;;;;4998857;28;20195;-65
2022/10/07 02:02:29;;;;;;;11.43;4.10;;;11.80;99.90;;;;;;5001948;28;20195;-63
2022/10/07 02:04:58;;;;;;;7.30;4.13;;;11.70;99.90;;;;;;5010387;28;20529;-65
2022/10/07 02:07:42;;;;;;;15.70;4.63;;;11.50;99.90;;;;;;5010695;28;20230;-63
2022/10/07 02:10:31;;;;;;;17.03;5.63;;;11.60;99.90;;;;;;5006467;28;20549;-63
2022/10/07 02:13:07;;;;;;;8.23;5.47;;;11.60;99.90;;;;;;4994088;28;20180;-63
2022/10/07 02:15:52;;;;;;;6.60;4.67;;;11.70;99.90;;;;;;5006994;28;20269;-64
2022/10/07 02:18:22;;;;;;;8.57;4.70;;;11.70;99.90;;;;;;4985774;28;20266;-64
2022/10/07 02:20:50;;;;;;;9.97;4.57;;;11.60;99.90;;;;;;5003328;28;20330;-64
2022/10/07 02:23:20;;;;;;;9.40;4.67;;;11.70;99.90;;;;;;5007888;28;20273;-64
2022/10/07 02:25:49;;;;;;;7.67;3.80;;;11.70;99.90;;;;;;4989610;28;20710;-64
2022/10/07 02:28:22;;;;;;;14.90;6.50;;;11.60;99.90;;;;;;5000039;28;20239;-64
2022/10/07 02:30:52;;;;;;;13.23;4.17;;;11.50;99.90;;;;;;5002496;28;20184;-64
2022/10/07 02:33:20;;;;;;;13.80;4.43;;;11.40;99.90;;;;;;5011415;28;20187;-64
2022/10/07 02:36:21;;;;;;;12.50;4.47;;;11.50;99.90;;;;;;5008113;28;20188;-64
2022/10/07 02:38:47;;;;;;;7.60;5.10;;;11.50;99.90;;;;;;4990015;28;20199;-64
2022/10/07 02:41:33;;;;;;;15.80;4.73;;;11.50;99.90;;;;;;4969938;28;20190;-64
2022/10/07 02:44:37;;;;;;;14.23;5.60;;;11.40;99.90;;;;;;4989970;28;20371;-63
2022/10/07 02:47:10;;;;;;;8.80;3.13;;;11.40;99.90;;;;;;4990359;28;20240;-64
2022/10/07 02:49:40;;;;;;;13.73;6.27;;;11.40;99.90;;;;;;5002067;28;20222;-63
2022/10/07 02:52:11;;;;;;;11.97;3.53;;;11.50;99.90;;;;;;5009664;28;20183;-63
2022/10/07 02:54:43;;;;;;;4.13;3.77;;;11.40;99.90;;;;;;4995102;28;20187;-64
2022/10/07 02:57:14;;;;;;;7.13;4.40;;;11.40;99.90;;;;;;4995153;28;20625;-63
2022/10/07 02:59:41;;;;;;;7.87;3.87;;;11.50;99.90;;;;;;5009850;28;20542;-63
2022/10/07 03:02:11;;;;;;;8.17;3.87;;;11.50;99.90;;;;;;5001140;28;20219;-64
2022/10/07 03:04:37;;;;;;;5.87;3.33;;;11.30;99.90;;;;;;5010716;28;20201;-63
2022/10/07 03:07:03;;;;;;;6.40;3.70;;;11.30;99.90;;;;;;5004254;28;20649;-65
2022/10/07 03:09:30;;;;;;;7.33;3.70;;;11.40;99.90;;;;;;4999206;28;21727;-63
2022/10/07 03:11:55;;;;;;;7.60;3.77;;;11.30;99.90;;;;;;4970894;28;20552;-65
2022/10/07 03:14:23;;;;;;;10.33;3.97;;;11.40;99.90;;;;;;5011163;28;20198;-62
2022/10/07 03:16:50;;;;;;;7.23;3.53;;;11.40;99.90;;;;;;4965495;28;20303;-65
2022/10/07 03:19:16;;;;;;;7.57;3.70;;;11.30;99.90;;;;;;4987904;28;20624;-63
2022/10/07 03:21:41;;;;;;;8.33;3.57;;;11.30;99.90;;;;;;4988410;28;20211;-63
2022/10/07 03:24:07;;;;;;;8.23;4.20;;;11.20;99.90;;;;;;4984292;28;20624;-63
2022/10/07 03:26:34;;;;;;;9.07;3.70;;;11.20;99.90;;;;;;5008941;28;20218;-65
2022/10/07 03:29:00;;;;;;;5.80;3.40;;;11.10;99.90;;;;;;4993673;28;20564;-64
2022/10/07 03:31:26;;;;;;;10.27;3.63;;;11.10;99.90;;;;;;4976345;28;20291;-64
2022/10/07 03:33:55;;;;;;;5.40;3.87;;;10.90;99.90;;;;;;5012595;28;20184;-64
2022/10/07 03:36:22;;;;;;;7.37;3.17;;;10.90;99.90;;;;;;5009040;28;20184;-64
2022/10/07 03:38:49;;;;;;;8.97;3.63;;;10.90;99.90;;;;;;4984783;28;20188;-63
2022/10/07 03:41:16;;;;;;;4.97;3.47;;;11.10;99.90;;;;;;4992730;28;20188;-64
2022/10/07 03:43:42;;;;;;;13.47;3.43;;;11.10;99.90;;;;;;5000211;28;20230;-64
2022/10/07 03:46:07;;;;;;;7.47;4.63;;;11.20;99.90;;;;;;5006078;28;20188;-64
2022/10/07 03:48:33;;;;;;;4.33;3.10;;;11.10;99.90;;;;;;4989760;28;20231;-63
2022/10/07 03:50:59;;;;;;;5.97;3.03;;;10.90;99.90;;;;;;4993502;28;20705;-63
2022/10/07 03:53:27;;;;;;;8.67;3.07;;;10.70;99.90;;;;;;4997169;28;20187;-63
2022/10/07 03:55:53;;;;;;;9.90;3.37;;;10.60;99.90;;;;;;4975495;28;20192;-63
2022/10/07 03:58:19;;;;;;;7.50;3.47;;;10.60;99.90;;;;;;4991626;28;20194;-65
2022/10/07 04:00:44;;;;;;;5.37;3.40;;;10.50;99.90;;;;;;4985270;28;20175;-64
2022/10/07 04:03:12;;;;;;;9.90;4.73;;;10.60;99.90;;;;;;5008625;28;20193;-64
2022/10/07 04:05:37;;;;;;;9.47;3.13;;;10.80;99.90;;;;;;5001024;28;20175;-63
2022/10/07 04:08:06;;;;;;;7.17;3.70;;;10.80;99.90;;;;;;4969773;28;20227;-64
2022/10/07 04:10:33;;;;;;;9.67;2.70;;;10.60;99.90;;;;;;4977589;28;20662;-63
2022/10/07 04:12:59;;;;;;;5.60;2.83;;;10.50;99.90;;;;;;5001139;28;20195;-63
2022/10/07 04:15:25;;;;;;;4.63;3.10;;;10.40;99.90;;;;;;4970108;28;20254;-65
2022/10/07 04:17:57;;;;;;;10.40;3.17;;;10.30;99.90;;;;;;5010394;28;20203;-66
2022/10/07 04:20:23;;;;;;;8.47;3.20;;;10.20;99.90;;;;;;4990719;28;20187;-64
2022/10/07 04:22:52;;;;;;;14.77;3.17;;;10.10;99.90;;;;;;4999212;28;20200;-65
2022/10/07 04:25:32;;;;;;;5.00;3.47;;;10.10;99.90;;;;;;4993845;28;20203;-64
2022/10/07 04:28:03;;;;;;;5.83;2.67;;;10.30;99.90;;;;;;4994074;28;20213;-64
2022/10/07 04:30:33;;;;;;;6.33;3.17;;;10.50;99.90;;;;;;5002060;28;20191;-64
2022/10/07 04:33:03;;;;;;;12.17;3.53;;;10.60;99.90;;;;;;4994140;28;20290;-64
2022/10/07 04:35:34;;;;;;;6.47;3.40;;;10.60;99.90;;;;;;5002894;28;20274;-63
2022/10/07 04:38:03;;;;;;;8.47;4.63;;;10.80;99.90;;;;;;5002691;28;20257;-64
2022/10/07 04:40:30;;;;;;;7.90;3.57;;;10.80;99.90;;;;;;4993986;28;20191;-64
2022/10/07 04:45:39;;;;;;;6.30;3.67;;;10.60;99.90;;;;;;4996949;28;20696;-63
2022/10/07 04:48:05;;;;;;;8.97;3.10;;;10.60;99.90;;;;;;4988417;28;20219;-62
2022/10/07 04:50:33;;;;;;;7.23;3.47;;;10.50;99.90;;;;;;5014548;28;20634;-63
2022/10/07 04:52:58;;;;;;;8.87;2.90;;;10.40;99.90;;;;;;5001300;28;20283;-63
2022/10/07 04:55:25;;;;;;;8.90;3.10;;;10.30;99.90;;;;;;4951685;28;20274;-63
2022/10/07 04:57:51;;;;;;;8.60;3.90;;;10.30;99.90;;;;;;4991857;28;20187;-64
2022/10/07 05:00:17;;;;;;;7.13;3.87;;;10.30;99.90;;;;;;4999557;28;20180;-63
2022/10/07 05:02:45;;;;;;;5.60;3.00;;;10.30;99.90;;;;;;4977158;28;20188;-63
2022/10/07 05:05:13;;;;;;;8.13;4.27;;;10.20;99.90;;;;;;5001454;28;20671;-62
2022/10/07 05:07:39;;;;;;;6.43;3.30;;;10.30;99.90;;;;;;4996430;28;20195;-63
2022/10/07 05:10:05;;;;;;;4.43;2.80;;;10.60;99.90;;;;;;4983655;28;20201;-63
2022/10/07 05:12:31;;;;;;;3.77;2.57;;;10.60;99.90;;;;;;4993183;28;20605;-63
2022/10/07 05:14:57;;;;;;;6.43;2.50;;;10.50;99.90;;;;;;5009211;28;20188;-63
2022/10/07 05:17:22;;;;;;;10.30;3.90;;;10.40;99.90;;;;;;4973835;28;20725;-64
2022/10/07 05:19:48;;;;;;;9.87;4.40;;;10.30;99.90;;;;;;4959088;28;20219;-63
2022/10/07 05:22:13;;;;;;;7.17;2.73;;;10.10;99.90;;;;;;4996877;28;20184;-63
2022/10/07 05:24:39;;;;;;;7.67;3.03;;;10.10;99.90;;;;;;5009685;28;20273;-63
2022/10/07 05:27:05;;;;;;;13.10;3.50;;;10.00;99.90;;;;;;4985431;28;20195;-63
2022/10/07 05:29:30;;;;;;;6.93;3.30;;;10.00;99.90;;;;;;5007401;28;20215;-63
2022/10/07 05:31:58;;;;;;;7.83;3.13;;;10.10;99.90;;;;;;4975448;28;20203;-63
2022/10/07 05:34:24;;;;;;;5.13;3.43;;;10.20;99.90;;;;;;5014043;28;20184;-63
2022/10/07 05:36:53;;;;;;;8.87;3.53;;;10.40;99.90;;;;;;4981499;28;20594;-63
2022/10/07 05:39:18;;;;;;;17.17;4.60;;;10.50;99.90;;;;;;5007091;28;20192;-63
2022/10/07 05:41:44;;;;;;;11.97;5.20;;;10.60;99.90;;;;;;5006056;28;20188;-63
2022/10/07 05:44:09;;;;;;;7.83;4.00;;;10.50;99.90;;;;;;4994536;28;20241;-64
2022/10/07 05:46:35;;;;;;;9.60;3.70;;;10.50;99.90;;;;;;4966379;28;20188;-63
2022/10/07 05:49:00;;;;;;;5.40;3.20;;;10.30;99.90;;;;;;5004372;28;20215;-62
2022/10/07 05:51:26;;;;;;;5.03;3.20;;;10.20;99.90;;;;;;4988595;28;20195;-63
2022/10/07 05:53:55;;;;;;;9.50;4.10;;;10.50;99.90;;;;;;4995823;28;20195;-63
2022/10/07 05:56:22;;;;;;;16.30;4.07;;;10.70;99.90;;;;;;5011284;28;20233;-63
2022/10/07 05:58:49;;;;;;;11.33;3.50;;;10.90;99.90;;;;;;4985083;28;20505;-63
2022/10/07 06:01:17;;;;;;;10.33;3.87;;;11.10;99.90;;;;;;4986693;28;20255;-63
2022/10/07 06:03:47;;;;;;;11.27;4.03;;;11.10;99.90;;;;;;5010190;28;20186;-64
2022/10/07 06:06:13;;;;;;;13.67;4.13;;;11.00;99.90;;;;;;4980346;28;20195;-64
2022/10/07 06:08:39;;;;;;;7.50;3.60;;;11.00;99.90;;;;;;4996187;28;20213;-64
2022/10/07 06:13:52;;;;;;;10.90;4.13;;;11.20;99.90;;;;;;4989704;28;20230;-64
2022/10/07 06:16:18;;;;;;;7.77;3.73;;;11.20;99.90;;;;;;4992328;28;20599;-64
2022/10/07 06:18:44;;;;;;;14.83;4.20;;;11.20;99.90;;;;;;5005384;28;20538;-63
2022/10/07 06:21:11;;;;;;;9.83;4.63;;;11.20;99.90;;;;;;4985390;28;20180;-64
2022/10/07 06:23:43;;;;;;;7.63;3.77;;;11.30;99.90;;;;;;4987062;28;20604;-63
2022/10/07 06:26:10;;;;;;;14.60;3.77;;;11.20;99.90;;;;;;5002707;28;20191;-62
2022/10/07 06:28:38;;;;;;;6.10;3.87;;;11.40;99.90;;;;;;4972956;28;20207;-63
2022/10/07 06:31:11;;;;;;;7.10;3.97;;;11.50;99.90;;;;;;4994985;28;20195;-63
2022/10/07 06:33:41;;;;;;;13.10;4.80;;;11.30;99.90;;;;;;4991547;28;20276;-64
2022/10/07 06:36:10;;;;;;;14.07;4.53;;;11.10;99.90;;;;;;5009471;28;20266;-63
2022/10/07 06:38:37;;;;;;;8.33;4.37;;;11.20;99.90;;;;;;4995708;28;20191;-63
2022/10/07 06:41:04;;;;;;;7.90;4.37;;;11.50;99.90;;;;;;5000776;28;20179;-63
2022/10/07 06:43:33;;;;;;;8.87;4.20;;;11.60;99.90;;;;;;4984025;28;20214;-64
2022/10/07 06:46:01;;;;;;;11.07;4.20;;;11.70;99.90;;;;;;4978495;28;20676;-63
2022/10/07 06:48:31;;;;;;;8.23;3.77;;;11.70;99.90;;;;;;4997927;28;20680;-64
2022/10/07 06:50:58;;;;;;;6.13;4.67;;;11.80;99.90;;;;;;4984487;28;20199;-67
2022/10/07 06:53:25;;;;;;;5.73;3.77;;;11.90;99.90;;;;;;5012488;28;20310;-66
2022/10/07 06:55:53;;;;;;;5.30;3.20;;;11.90;99.90;;;;;;4993880;28;20187;-59
2022/10/07 06:58:20;;;;;;;8.80;3.20;;;12.00;99.90;;;;;;4979670;28;20231;-60
2022/10/07 07:00:56;;;;;;;12.75;4.55;;;12.20;99.90;;;;;;4995576;28;20191;-59
2022/10/07 07:03:22;;;;;;;19.23;4.55;;;12.80;99.90;;;;;;4994649;28;20189;-60
2022/10/07 07:05:51;;;;;;;4.43;3.05;;;13.60;99.90;;;;;;5001309;28;20187;-63
2022/10/07 07:08:18;;;;;;;6.85;3.30;;;14.20;99.90;;;;;;5001301;28;20218;-61
2022/10/07 07:10:44;;;;;;;12.48;3.67;;;14.80;99.90;;;;;;5001487;28;20281;-61
2022/10/07 07:13:11;;;;;;;5.65;3.20;;;15.60;99.90;;;;;;4989766;28;20201;-61
2022/10/07 07:15:39;;;;;;;5.57;3.03;;;16.30;99.90;;;;;;4997615;28;20210;-62
2022/10/07 07:18:06;;;;;;;8.32;2.38;;;17.10;99.90;;;;;;4999666;28;20192;-61
2022/10/07 07:20:37;;;;;;;6.10;2.35;;;17.50;99.90;;;;;;4996857;28;20176;-63
2022/10/07 07:23:08;;;;;;;14.48;4.00;;;17.90;99.90;;;;;;4994776;28;20223;-64
2022/10/07 07:25:36;;;;;;;8.90;2.80;;;18.50;99.90;;;;;;4976125;28;20196;-64
2022/10/07 07:28:02;;;;;;;10.18;2.78;;;19.20;99.90;;;;;;4996607;28;20218;-65
2022/10/07 07:30:28;;;;;;;3.78;2.25;;;19.90;99.90;;;;;;4979455;28;20188;-63
2022/10/07 07:32:54;;;;;;;4.15;2.25;;;20.40;99.90;;;;;;5001548;28;20209;-63
2022/10/07 07:35:21;;;;;;;5.05;1.98;;;20.40;99.90;;;;;;5002076;28;20637;-63
2022/10/07 07:37:47;;;;;;;6.85;2.42;;;20.30;99.90;;;;;;4971458;28;20202;-63
2022/10/07 07:40:12;;;;;;;5.05;2.38;;;20.00;99.90;;;;;;5012811;28;20183;-64
2022/10/07 07:42:38;;;;;;;9.88;2.50;;;20.20;99.90;;;;;;4979245;28;20215;-64
2022/10/07 07:45:04;;;;;;;7.10;2.83;;;20.30;99.90;;;;;;4979424;28;20193;-63
2022/10/07 07:47:30;;;;;;;3.65;1.98;;;20.40;99.90;;;;;;5005591;28;20209;-63
2022/10/07 07:49:55;;;;;;;8.10;2.67;;;20.30;99.90;;;;;;4992256;28;20191;-64
2022/10/07 07:52:24;;;;;;;5.22;2.58;;;20.40;99.90;;;;;;5011587;28;20187;-63
2022/10/07 07:54:51;;;;;;;6.68;3.70;;;20.30;99.90;;;;;;5008389;28;20251;-63
2022/10/07 07:57:17;;;;;;;10.65;2.05;;;20.20;99.90;;;;;;5007617;28;20192;-63
2022/10/07 07:59:42;;;;;;;5.20;2.03;;;19.90;99.90;;;;;;4983076;28;20203;-63
2022/10/07 08:02:10;;;;;;;4.68;2.38;;;19.90;99.90;;;;;;4990312;28;20219;-63
2022/10/07 08:04:36;;;;;;;7.72;3.88;;;20.10;99.90;;;;;;5007180;28;20234;-64
2022/10/07 08:07:02;;;;;;;8.38;3.08;;;20.10;99.90;;;;;;4999890;28;20652;-64
2022/10/07 08:09:27;;;;;;;4.70;1.92;;;20.20;99.90;;;;;;5002640;28;20215;-64
2022/10/07 08:11:55;;;;;;;6.75;1.88;;;20.10;99.90;;;;;;4999094;28;20266;-65
2022/10/07 08:14:21;;;;;;;2.90;2.08;;;19.40;99.90;;;;;;4975222;28;20187;-64
2022/10/07 08:16:48;;;;;;;3.97;1.80;;;18.60;99.90;;;;;;4996371;28;20319;-64
2022/10/07 08:19:14;;;;;;;5.18;1.83;;;18.40;99.90;;;;;;4988731;28;20563;-63
2022/10/07 08:21:40;;;;;;;7.35;2.30;;;18.30;99.90;;;;;;5003931;28;20229;-64
2022/10/07 08:24:07;;;;;;;4.10;2.15;;;17.80;99.90;;;;;;4997681;28;20191;-64
2022/10/07 08:26:33;;;;;;;8.93;2.50;;;17.20;99.90;;;;;;5013246;28;20571;-64
2022/10/07 08:29:00;;;;;;;5.97;1.85;;;16.70;99.90;;;;;;4998231;28;20221;-64
2022/10/07 08:31:28;;;;;;;4.22;2.40;;;16.40;99.90;;;;;;4993964;28;20556;-65
2022/10/07 08:33:55;;;;;;;9.15;2.95;;;16.30;99.90;;;;;;5006591;28;20193;-65
2022/10/07 08:36:23;;;;;;;2.58;2.10;;;16.20;99.90;;;;;;5000146;28;20533;-64
2022/10/07 08:38:49;;;;;;;13.23;2.80;;;16.20;99.90;;;;;;4978937;28;20192;-65
2022/10/07 08:41:23;;;;;;;6.88;2.58;;;16.10;99.90;;;;;;4993364;28;20266;-64
2022/10/07 08:43:50;;;;;;;12.45;2.63;;;16.00;99.90;;;;;;4997745;28;20299;-65
2022/10/07 08:46:20;;;;;;;5.55;2.88;;;16.00;99.90;;;;;;5001214;28;20703;-65
2022/10/07 08:48:58;;;;;;;6.88;2.58;;;16.00;99.90;;;;;;4999682;28;20211;-65
2022/10/07 08:51:36;;;;;;;8.02;2.28;;;16.00;99.90;;;;;;4983974;28;20183;-63
2022/10/07 08:54:02;;;;;;;4.20;2.05;;;16.20;99.90;;;;;;5000650;28;20207;-64
2022/10/07 08:56:29;;;;;;;9.43;3.00;;;16.10;99.90;;;;;;4967510;28;20262;-63
2022/10/07 08:59:20;;;;;;;8.55;3.40;;;16.20;99.90;;;;;;4998606;28;20196;-63
2022/10/07 09:01:49;;;;;;;5.32;2.90;;;16.20;99.90;;;;;;4997413;28;20593;-63
2022/10/07 09:04:54;;;;;;;5.78;2.42;;;16.30;99.90;;;;;;4996065;28;20321;-63
2022/10/07 09:07:35;;;;;;;12.10;2.83;;;16.20;99.90;;;;;;4973555;28;20202;-66
2022/10/07 09:10:24;;;;;;;4.95;2.25;;;16.30;99.90;;;;;;5005343;28;20215;-62
2022/10/07 09:12:59;;;;;;;10.50;2.30;;;16.50;99.90;;;;;;5007589;28;20180;-63
2022/10/07 09:15:28;;;;;;;8.32;2.28;;;16.50;99.90;;;;;;5002825;28;20592;-63
2022/10/07 09:18:00;;;;;;;3.35;1.77;;;16.50;99.90;;;;;;5013890;28;20269;-63
2022/10/07 09:20:33;;;;;;;6.93;2.67;;;16.60;99.90;;;;;;5005817;28;20214;-62
2022/10/07 09:23:00;;;;;;;3.60;1.95;;;16.80;99.90;;;;;;4976765;28;20696;-62
2022/10/07 09:25:28;;;;;;;6.82;3.15;;;16.70;99.90;;;;;;4995371;28;20211;-62
2022/10/07 09:27:54;;;;;;;4.68;1.70;;;16.60;99.90;;;;;;5006612;28;20577;-62
2022/10/07 09:30:22;;;;;;;5.93;2.50;;;16.40;99.90;;;;;;5012176;28;20203;-62
2022/10/07 09:32:52;;;;;;;9.90;3.13;;;16.40;99.90;;;;;;5007839;28;20195;-62
2022/10/07 09:35:21;;;;;;;9.98;3.10;;;16.40;99.90;;;;;;5008575;28;20244;-63
2022/10/07 09:38:03;;;;;;;6.55;2.38;;;16.20;99.90;;;;;;5008713;28;20183;-65
2022/10/07 09:40:36;;;;;;;7.70;2.53;;;16.30;99.90;;;;;;5003723;28;20537;-62
2022/10/07 09:43:12;;;;;;;6.75;2.20;;;16.40;99.90;;;;;;4995145;28;20243;-62
2022/10/07 09:45:45;;;;;;;6.50;2.85;;;16.30;99.90;;;;;;4981867;28;20271;-63
2022/10/07 09:48:20;;;;;;;5.93;1.95;;;16.50;99.90;;;;;;4993751;28;20234;-68
2022/10/07 09:50:46;;;;;;;2.38;1.80;;;16.50;99.90;;;;;;5009960;28;20180;-64
2022/10/07 09:53:27;;;;;;;6.05;2.03;;;16.60;99.90;;;;;;4977331;28;20192;-63
2022/10/07 09:55:54;;;;;;;5.60;2.35;;;16.70;99.90;;;;;;4998904;28;20633;-63
2022/10/07 09:58:28;;;;;;;3.47;2.47;;;16.70;99.90;;;;;;5002992;28;20224;-64
2022/10/07 10:00:57;;;;;;;9.65;2.60;;;16.80;99.90;;;;;;4999006;28;20180;-63
2022/10/07 10:03:37;;;;;;;3.17;1.65;;;16.80;99.90;;;;;;5002591;28;20191;-64
2022/10/07 10:06:07;;;;;;;6.05;1.92;;;16.70;99.90;;;;;;5008153;28;20533;-64
2022/10/07 10:08:36;;;;;;;5.68;2.70;;;16.80;99.90;;;;;;5003005;28;20293;-63
2022/10/07 10:11:04;;;;;;;10.98;2.85;;;16.80;99.90;;;;;;4999021;28;20222;-63
2022/10/07 10:13:37;;;;;;;2.33;1.70;;;17.00;99.90;;;;;;5004274;28;20612;-63
2022/10/07 10:16:05;;;;;;;7.57;2.58;;;17.00;99.90;;;;;;5000962;28;20640;-63
2022/10/07 10:18:39;;;;;;;4.30;2.17;;;17.10;99.90;;;;;;4995438;28;20235;-66
2022/10/07 10:21:29;;;;;;;5.00;2.08;;;17.10;99.90;;;;;;4989489;28;20240;-64
2022/10/07 10:24:00;;;;;;;9.15;1.98;;;17.00;99.90;;;;;;4993630;28;20282;-63
2022/10/07 10:26:45;;;;;;;4.85;2.42;;;17.10;99.90;;;;;;5007305;28;20187;-64
2022/10/07 10:29:26;;;;;;;7.40;2.10;;;17.10;99.90;;;;;;5005894;28;20219;-64
2022/10/07 10:32:03;;;;;;;6.38;2.38;;;17.20;99.90;;;;;;4985589;28;20198;-64
2022/10/07 10:35:12;;;;;;;12.13;2.50;;;17.30;99.90;;;;;;5005621;28;20202;-63
2022/10/07 10:37:40;;;;;;;6.78;3.13;;;17.30;99.90;;;;;;4975856;28;20211;-66
2022/10/07 10:40:27;;;;;;;5.90;2.28;;;17.30;99.90;;;;;;4994273;28;20263;-64
2022/10/07 10:43:19;;;;;;;6.97;1.90;;;17.40;99.90;;;;;;4993237;28;20636;-63
2022/10/07 10:46:15;;;;;;;6.50;2.40;;;17.30;99.90;;;;;;5000090;28;20180;-63
2022/10/07 10:49:00;;;;;;;5.55;1.60;;;17.50;99.90;;;;;;5006466;28;20208;-63
2022/10/07 10:51:57;;;;;;;2.60;2.33;;;17.50;99.90;;;;;;4981964;28;20286;-63
2022/10/07 10:54:42;;;;;;;9.98;2.30;;;17.60;99.90;;;;;;4998854;28;20188;-63
2022/10/07 10:57:33;;;;;;;7.97;1.92;;;17.60;99.90;;;;;;5001773;28;20195;-63
2022/10/07 11:00:03;;;;;;;2.72;1.98;;;17.60;99.90;;;;;;4999601;28;20241;-63
2022/10/07 11:02:58;;;;;;;7.60;2.17;;;17.80;99.90;;;;;;5012412;28;20189;-64
2022/10/07 11:05:29;;;;;;;7.47;1.63;;;18.00;99.90;;;;;;5001263;28;20707;-64
2022/10/07 11:07:58;;;;;;;2.88;1.40;;;18.00;99.90;;;;;;5000437;28;20641;-64
2022/10/07 11:10:32;;;;;;;3.28;1.77;;;18.10;99.90;;;;;;5012555;28;20183;-64
2022/10/07 11:13:05;;;;;;;7.20;1.48;;;18.20;99.90;;;;;;4995066;28;20183;-64
2022/10/07 11:15:40;;;;;;;5.22;1.45;;;18.40;99.90;;;;;;4997000;28;20207;-64
2022/10/07 11:18:19;;;;;;;6.05;2.15;;;18.50;99.90;;;;;;4998940;28;20191;-64
2022/10/07 11:20:47;;;;;;;1.90;1.20;;;18.70;99.90;;;;;;5011065;28;20213;-64
2022/10/07 11:23:40;;;;;;;4.90;1.17;;;18.70;99.90;;;;;;4992408;28;21599;-64
2022/10/07 11:26:19;;;;;;;4.03;1.30;;;18.80;99.90;;;;;;5004902;28;20545;-65
2022/10/07 11:28:47;;;;;;;1.40;1.20;;;18.90;99.90;;;;;;4999399;28;21010;-65
2022/10/07 11:31:31;;;;;;;5.18;1.48;;;18.80;99.90;;;;;;4993152;28;20192;-64
2022/10/07 11:34:06;;;;;;;5.90;1.83;;;18.90;99.90;;;;;;4999696;28;20267;-64
2022/10/07 11:37:10;;;;;;;4.35;1.33;;;19.00;99.90;;;;;;5001171;28;20309;-64
2022/10/07 11:39:37;;;;;;;4.68;1.15;;;18.70;99.90;;;;;;4969011;28;20333;-64
2022/10/07 11:42:14;;;;;;;4.97;1.75;;;18.70;99.90;;;;;;4999702;28;20275;-64
2022/10/07 11:45:01;;;;;;;2.45;1.35;;;18.60;99.90;;;;;;5002890;28;20191;-64
2022/10/07 11:47:38;;;;;;;2.45;1.20;;;18.60;99.90;;;;;;4998888;28;20200;-64
2022/10/07 11:50:19;;;;;;;3.83;0.93;;;18.80;99.90;;;;;;5000700;28;20198;-64
2022/10/07 11:52:48;;;;;;;5.68;1.50;;;18.90;99.90;;;;;;5003787;28;20550;-64
2022/10/07 11:55:33;;;;;;;3.40;1.48;;;18.90;99.90;;;;;;5006783;28;20240;-64
2022/10/07 11:58:02;;;;;;;13.65;7.38;;;18.90;99.90;;;;;;4981616;28;20184;-64
2022/10/07 12:00:38;;;;;;;4.72;2.00;;;18.80;99.90;;;;;;4996229;28;20697;-64
2022/10/07 12:03:18;;;;;;;2.65;1.77;;;18.80;99.90;;;;;;5006839;28;20189;-64
2022/10/07 12:05:52;;;;;;;4.07;1.20;;;18.80;99.90;;;;;;4985795;28;20190;-64
2022/10/07 12:08:24;;;;;;;4.65;1.55;;;18.70;99.90;;;;;;4999949;28;20231;-64
2022/10/07 12:11:16;;;;;;;2.65;1.65;;;18.80;99.90;;;;;;4994689;28;20191;-64
2022/10/07 12:13:47;;;;;;;8.38;2.22;;;18.70;99.90;;;;;;4983354;28;20230;-66
2022/10/07 12:16:28;;;;;;;4.72;2.03;;;18.90;99.90;;;;;;4995833;28;20188;-64
2022/10/07 12:19:06;;;;;;;5.68;1.42;;;18.90;99.90;;;;;;4992473;28;20187;-64
2022/10/07 12:22:07;;;;;;;1.38;1.27;;;18.80;99.90;;;;;;4993446;28;20179;-65
2022/10/07 12:24:41;;;;;;;6.65;1.30;;;18.90;99.90;;;;;;4994257;28;20184;-64
2022/10/07 12:27:18;;;;;;;2.58;1.17;;;18.90;99.90;;;;;;4983270;28;20705;-64
2022/10/07 12:30:03;;;;;;;1.23;1.13;;;19.00;99.90;;;;;;5008776;28;20210;-64
2022/10/07 12:32:51;;;;;;;4.07;1.90;;;18.90;99.90;;;;;;5009557;28;20210;-64
2022/10/07 12:35:33;;;;;;;8.23;1.40;;;18.90;99.90;;;;;;4999649;28;20184;-64
2022/10/07 12:38:14;;;;;;;5.22;1.30;;;18.90;99.90;;;;;;4989568;28;20187;-64
2022/10/07 12:40:43;;;;;;;4.15;1.25;;;19.00;99.90;;;;;;4995330;28;20180;-64
2022/10/07 12:43:27;;;;;;;2.67;1.13;;;19.00;99.90;;;;;;5004860;28;20259;-64
2022/10/07 12:45:57;;;;;;;2.45;1.25;;;19.00;99.90;;;;;;4992284;28;20188;-64
2022/10/07 12:48:26;;;;;;;4.70;1.00;;;19.10;99.90;;;;;;4975102;28;20241;-64
2022/10/07 12:50:55;;;;;;;3.10;2.15;;;19.20;99.90;;;;;;4992187;28;20534;-65
2022/10/07 12:53:25;;;;;;;2.05;1.10;;;19.10;99.90;;;;;;4992684;28;20173;-64
2022/10/07 12:55:53;;;;;;;2.92;1.45;;;19.10;99.90;;;;;;4992869;28;20210;-64
2022/10/07 13:01:52;;;;;;;1.77;1.05;;;19.30;99.90;;;;;;4996071;28;20254;-64
2022/10/07 13:04:27;;;;;;;2.15;1.10;;;19.00;99.90;;;;;;4995699;28;20187;-64
2022/10/07 13:07:14;;;;;;;1.65;1.13;;;18.90;99.90;;;;;;4995743;28;20194;-64
2022/10/07 13:09:58;;;;;;;1.67;1.02;;;18.90;99.90;;;;;;4977530;28;20219;-64
2022/10/07 13:12:53;;;;;;;2.22;1.15;;;19.00;99.90;;;;;;5005021;28;20194;-64
2022/10/07 13:15:46;;;;;;;2.83;1.13;;;18.90;99.90;;;;;;4997548;28;20187;-64
2022/10/07 13:18:16;;;;;;;8.07;1.88;;;19.00;99.90;;;;;;5007967;28;20200;-65
2022/10/07 13:21:20;;;;;;;4.72;1.65;;;19.10;99.90;;;;;;5011335;28;20218;-64